Time;durP1;ratioP1;P1;durP2;ratioP2;P2;SDS_P1;SDS_P2;PMS_P1;PMS_P2;Temp;Humidity;BMP_temperature;BMP_pressure;BME280_temperature;BME280_humidity;BME280_pressure;Samples;Min_cycle;Max_cycle;Signal;HPM_P1;HPM_P2
2022/01/07 00:00:12;;;;;;;8.55;2.15;;;;;;;;;;4999061;28;20029;-72
2022/01/07 00:02:39;;;;;;;15.20;2.55;;;;;;;;;;5019930;28;20037;-72
2022/01/07 00:05:05;;;;;;;13.15;2.00;;;;;;;;;;5008650;28;20052;-72
2022/01/07 00:07:31;;;;;;;14.25;3.00;;;;;;;;;;5002728;28;20021;-72
2022/01/07 00:09:57;;;;;;;12.55;2.63;;;;;;;;;;5002100;28;20099;-74
2022/01/07 00:12:23;;;;;;;10.55;2.70;;;;;;;;;;5009393;28;20025;-73
2022/01/07 00:14:50;;;;;;;10.50;2.40;;;;;;;;;;5014287;28;20037;-71
2022/01/07 00:17:16;;;;;;;15.27;2.33;;;;;;;;;;5006383;28;20025;-77
2022/01/07 00:19:43;;;;;;;8.38;2.17;;;;;;;;;;5020172;28;20060;-71
2022/01/07 00:22:09;;;;;;;14.00;2.40;;;;;;;;;;5022056;28;20402;-73
2022/01/07 00:24:35;;;;;;;9.68;1.50;;;;;;;;;;5038295;28;20025;-72
2022/01/07 00:27:01;;;;;;;10.05;2.47;;;;;;;;;;5040120;28;20032;-73
2022/01/07 00:29:27;;;;;;;12.43;2.10;;;;;;;;;;5022822;28;20025;-72
2022/01/07 00:31:53;;;;;;;13.35;2.33;;;;;;;;;;5014598;28;20029;-73
2022/01/07 00:34:20;;;;;;;14.80;3.60;;;;;;;;;;5029740;28;20115;-72
2022/01/07 00:36:46;;;;;;;12.30;1.95;;;;;;;;;;5029742;28;20069;-72
2022/01/07 00:39:12;;;;;;;8.88;1.67;;;;;;;;;;5060546;28;20075;-72
2022/01/07 00:41:38;;;;;;;11.18;2.85;;;;;;;;;;5053697;28;20012;-72
2022/01/07 00:44:04;;;;;;;11.20;2.60;;;;;;;;;;5062014;28;20074;-72
2022/01/07 00:46:31;;;;;;;17.50;2.47;;;;;;;;;;5048220;28;20043;-72
2022/01/07 00:48:57;;;;;;;14.93;2.20;;;;;;;;;;5038939;28;20628;-72
2022/01/07 00:51:23;;;;;;;11.93;2.35;;;;;;;;;;5023781;28;20028;-72
2022/01/07 00:53:49;;;;;;;9.18;2.20;;;;;;;;;;5021676;28;20128;-72
2022/01/07 00:56:15;;;;;;;12.57;1.98;;;;;;;;;;5021855;28;20437;-72
2022/01/07 00:58:41;;;;;;;13.55;2.25;;;;;;;;;;5004418;28;20072;-71
2022/01/07 01:01:07;;;;;;;16.30;2.85;;;;;;;;;;5022942;28;20029;-72
2022/01/07 01:03:34;;;;;;;8.80;2.20;;;;;;;;;;5018964;28;20029;-72
2022/01/07 01:06:00;;;;;;;15.23;2.53;;;;;;;;;;5025325;28;20029;-72
2022/01/07 01:08:26;;;;;;;7.00;2.03;;;;;;;;;;5021366;28;20069;-72
2022/01/07 01:10:53;;;;;;;8.45;1.83;;;;;;;;;;5033681;28;20083;-72
2022/01/07 01:13:19;;;;;;;8.88;2.42;;;;;;;;;;5038850;28;20112;-72
2022/01/07 01:15:45;;;;;;;12.93;2.25;;;;;;;;;;5054693;28;20036;-72
2022/01/07 01:18:12;;;;;;;15.95;2.67;;;;;;;;;;5028359;28;20029;-72
2022/01/07 01:20:38;;;;;;;16.55;2.38;;;;;;;;;;5031658;28;20025;-71
2022/01/07 01:23:05;;;;;;;12.35;2.45;;;;;;;;;;5011739;28;20060;-72
2022/01/07 01:25:31;;;;;;;11.38;2.20;;;;;;;;;;5008108;28;20060;-72
2022/01/07 01:27:57;;;;;;;12.95;2.45;;;;;;;;;;5009225;28;20025;-72
2022/01/07 01:30:27;;;;;;;8.38;1.88;;;;;;;;;;5032905;28;20489;-72
2022/01/07 01:32:53;;;;;;;22.02;2.55;;;;;;;;;;5055760;28;20024;-72
2022/01/07 01:35:19;;;;;;;14.73;2.05;;;;;;;;;;5064139;28;20032;-72
2022/01/07 01:37:46;;;;;;;9.45;2.10;;;;;;;;;;5066894;28;20030;-72
2022/01/07 01:40:12;;;;;;;12.85;1.98;;;;;;;;;;5059294;28;20433;-72
2022/01/07 01:42:39;;;;;;;8.23;2.85;;;;;;;;;;5045249;28;20429;-72
2022/01/07 01:45:06;;;;;;;12.60;2.03;;;;;;;;;;5012540;28;20030;-72
2022/01/07 01:47:32;;;;;;;9.50;1.70;;;;;;;;;;5035158;28;20029;-72
2022/01/07 01:49:58;;;;;;;8.63;2.33;;;;;;;;;;5047006;28;20646;-72
2022/01/07 01:52:24;;;;;;;9.73;2.13;;;;;;;;;;5046762;28;20040;-72
2022/01/07 01:54:51;;;;;;;9.48;2.15;;;;;;;;;;5045712;28;20037;-72
2022/01/07 01:57:17;;;;;;;12.50;2.45;;;;;;;;;;5047017;28;20041;-72
2022/01/07 01:59:43;;;;;;;9.18;1.85;;;;;;;;;;5046787;28;20621;-72
2022/01/07 02:02:09;;;;;;;15.73;2.45;;;;;;;;;;5046448;28;20461;-72
2022/01/07 02:04:37;;;;;;;8.18;1.90;;;;;;;;;;5041808;28;20034;-74
2022/01/07 02:07:03;;;;;;;10.20;1.85;;;;;;;;;;5008948;28;20037;-72
2022/01/07 02:09:35;;;;;;;12.57;2.20;;;;;;;;;;5042837;28;20025;-72
2022/01/07 02:12:01;;;;;;;16.23;2.83;;;;;;;;;;5046661;28;20381;-72
2022/01/07 02:14:28;;;;;;;15.00;2.60;;;;;;;;;;5028592;28;20104;-72
2022/01/07 02:16:54;;;;;;;9.80;2.17;;;;;;;;;;5045209;28;20041;-72
2022/01/07 02:19:20;;;;;;;11.07;2.03;;;;;;;;;;5028216;28;20393;-72
2022/01/07 02:21:46;;;;;;;13.05;2.50;;;;;;;;;;5046847;28;20021;-72
2022/01/07 02:24:12;;;;;;;13.32;2.47;;;;;;;;;;5064499;28;20116;-72
2022/01/07 02:26:39;;;;;;;11.98;2.97;;;;;;;;;;5066233;28;20100;-72
2022/01/07 02:29:05;;;;;;;9.98;2.45;;;;;;;;;;5033010;28;20117;-72
2022/01/07 02:31:31;;;;;;;22.00;2.63;;;;;;;;;;5034580;28;20021;-72
2022/01/07 02:33:57;;;;;;;13.15;2.95;;;;;;;;;;5033905;28;20029;-72
2022/01/07 02:36:23;;;;;;;10.90;2.42;;;;;;;;;;5037430;28;20040;-72
2022/01/07 02:38:49;;;;;;;10.43;3.05;;;;;;;;;;5029089;28;20033;-71
2022/01/07 02:41:16;;;;;;;17.05;2.92;;;;;;;;;;5030875;28;20033;-73
2022/01/07 02:43:42;;;;;;;14.65;2.80;;;;;;;;;;5006873;28;20031;-72
2022/01/07 02:46:08;;;;;;;10.60;2.85;;;;;;;;;;5039504;28;20027;-72
2022/01/07 02:48:34;;;;;;;17.13;3.40;;;;;;;;;;5035449;28;20021;-73
2022/01/07 02:51:00;;;;;;;13.35;2.47;;;;;;;;;;5030821;28;20378;-72
2022/01/07 02:53:26;;;;;;;12.32;3.35;;;;;;;;;;5009857;28;20491;-72
2022/01/07 02:55:52;;;;;;;13.38;2.58;;;;;;;;;;5038327;28;20480;-72
2022/01/07 02:58:19;;;;;;;12.60;2.08;;;;;;;;;;5046642;28;20029;-72
2022/01/07 03:00:45;;;;;;;12.75;2.65;;;;;;;;;;5053097;28;20021;-72
2022/01/07 03:03:11;;;;;;;16.33;2.80;;;;;;;;;;5047717;28;20103;-72
2022/01/07 03:05:41;;;;;;;11.70;2.17;;;;;;;;;;5055879;28;20032;-72
2022/01/07 03:08:07;;;;;;;10.07;2.00;;;;;;;;;;5044080;28;20033;-72
2022/01/07 03:10:33;;;;;;;12.68;2.30;;;;;;;;;;5009746;28;20051;-75
2022/01/07 03:13:00;;;;;;;9.40;2.30;;;;;;;;;;5041297;28;20048;-72
2022/01/07 03:15:27;;;;;;;18.42;2.75;;;;;;;;;;5065264;28;20031;-72
2022/01/07 03:17:54;;;;;;;12.35;2.75;;;;;;;;;;5049617;28;20029;-72
2022/01/07 03:20:21;;;;;;;7.93;2.03;;;;;;;;;;5042004;28;20178;-72
2022/01/07 03:22:48;;;;;;;12.82;2.72;;;;;;;;;;5032510;28;20056;-72
2022/01/07 03:25:14;;;;;;;19.17;3.03;;;;;;;;;;5035806;28;20417;-73
2022/01/07 03:27:41;;;;;;;12.35;2.15;;;;;;;;;;5036238;28;20035;-72
2022/01/07 03:30:08;;;;;;;7.05;1.80;;;;;;;;;;5023209;28;20059;-72
2022/01/07 03:32:34;;;;;;;8.90;2.00;;;;;;;;;;5031084;28;20025;-72
2022/01/07 03:35:00;;;;;;;7.55;2.17;;;;;;;;;;5030328;28;20036;-72
2022/01/07 03:37:27;;;;;;;15.85;3.42;;;;;;;;;;5045413;28;20020;-72
2022/01/07 03:39:53;;;;;;;17.70;3.55;;;;;;;;;;5060964;28;20085;-72
2022/01/07 03:42:19;;;;;;;12.80;2.92;;;;;;;;;;5055665;28;20486;-72
2022/01/07 03:44:45;;;;;;;8.50;2.17;;;;;;;;;;5026002;28;20036;-71
2022/01/07 03:47:12;;;;;;;10.90;2.10;;;;;;;;;;5023094;28;20026;-72
2022/01/07 03:49:38;;;;;;;11.10;2.70;;;;;;;;;;5042614;28;20382;-73
2022/01/07 03:52:04;;;;;;;16.25;2.70;;;;;;;;;;5045873;28;20113;-72
2022/01/07 03:54:30;;;;;;;15.43;3.08;;;;;;;;;;5021877;28;20037;-76
2022/01/07 03:56:56;;;;;;;9.82;3.67;;;;;;;;;;4998246;28;20036;-73
2022/01/07 03:59:23;;;;;;;10.10;2.40;;;;;;;;;;5023061;28;20079;-72
2022/01/07 04:01:49;;;;;;;16.40;2.67;;;;;;;;;;5012234;28;20035;-72
2022/01/07 04:04:15;;;;;;;15.48;2.20;;;;;;;;;;5030901;28;20036;-72
2022/01/07 04:06:41;;;;;;;16.38;2.67;;;;;;;;;;5046427;28;20050;-72
2022/01/07 04:09:07;;;;;;;8.38;1.95;;;;;;;;;;5040780;28;20115;-72
2022/01/07 04:11:33;;;;;;;9.95;2.13;;;;;;;;;;5034364;28;20087;-72
2022/01/07 04:14:00;;;;;;;13.25;2.78;;;;;;;;;;5032330;28;20044;-72
2022/01/07 04:16:26;;;;;;;12.68;2.65;;;;;;;;;;5050643;28;20107;-72
2022/01/07 04:18:52;;;;;;;9.00;2.45;;;;;;;;;;5040667;28;20035;-72
2022/01/07 04:21:18;;;;;;;15.57;2.33;;;;;;;;;;5059611;28;20087;-72
2022/01/07 04:23:44;;;;;;;10.93;2.28;;;;;;;;;;5025964;28;20038;-72
2022/01/07 04:26:10;;;;;;;16.35;2.90;;;;;;;;;;5031636;28;20017;-72
2022/01/07 04:28:36;;;;;;;6.95;1.85;;;;;;;;;;5033607;28;20022;-72
2022/01/07 04:31:03;;;;;;;13.50;1.92;;;;;;;;;;5019978;28;20025;-75
2022/01/07 04:33:32;;;;;;;9.18;2.60;;;;;;;;;;5019457;28;20076;-72
2022/01/07 04:35:58;;;;;;;20.73;2.70;;;;;;;;;;5006707;28;20030;-77
2022/01/07 04:38:25;;;;;;;8.00;2.05;;;;;;;;;;4998614;28;20022;-81
2022/01/07 04:40:51;;;;;;;12.85;2.20;;;;;;;;;;5001282;28;20030;-73
2022/01/07 04:43:17;;;;;;;11.00;2.50;;;;;;;;;;5009516;28;20503;-72
2022/01/07 04:45:43;;;;;;;11.40;2.53;;;;;;;;;;5013989;28;20033;-72
2022/01/07 04:48:10;;;;;;;9.43;2.17;;;;;;;;;;5017947;28;20033;-72
2022/01/07 04:50:37;;;;;;;11.45;3.08;;;;;;;;;;5000265;28;20025;-77
2022/01/07 04:53:03;;;;;;;12.35;2.20;;;;;;;;;;5006531;28;20092;-72
2022/01/07 04:55:36;;;;;;;28.48;2.97;;;;;;;;;;5019975;28;20106;-79
2022/01/07 04:58:03;;;;;;;11.05;2.20;;;;;;;;;;5017926;28;20031;-72
2022/01/07 05:00:29;;;;;;;10.40;2.85;;;;;;;;;;5020227;28;20057;-72
2022/01/07 05:02:55;;;;;;;9.45;2.42;;;;;;;;;;5019829;28;20101;-72
2022/01/07 05:11:35;;;;;;;14.38;3.17;;;;;;;;;;5016390;28;20562;-91
2022/01/07 05:14:01;;;;;;;9.80;2.35;;;;;;;;;;5001221;28;20070;-91
2022/01/07 05:16:28;;;;;;;11.88;2.42;;;;;;;;;;5000616;28;20120;-91
2022/01/07 05:18:55;;;;;;;10.55;2.92;;;;;;;;;;5000497;28;20045;-92
2022/01/07 05:21:21;;;;;;;13.10;2.55;;;;;;;;;;5000694;28;20018;-91
2022/01/07 05:23:47;;;;;;;8.43;1.98;;;;;;;;;;5000496;28;20414;-92
2022/01/07 05:26:13;;;;;;;12.73;2.30;;;;;;;;;;5000372;28;20551;-91
2022/01/07 05:28:40;;;;;;;10.27;1.92;;;;;;;;;;5000360;28;20543;-91
2022/01/07 05:31:06;;;;;;;12.75;3.10;;;;;;;;;;5000552;28;20026;-91
2022/01/07 05:33:32;;;;;;;14.90;4.03;;;;;;;;;;5000128;28;20018;-92
2022/01/07 05:35:58;;;;;;;9.90;2.42;;;;;;;;;;5000136;28;20029;-91
2022/01/07 05:38:25;;;;;;;12.25;2.83;;;;;;;;;;5000346;28;20476;-92
2022/01/07 05:40:51;;;;;;;12.32;2.75;;;;;;;;;;5000142;28;20053;-92
2022/01/07 05:43:17;;;;;;;9.75;2.40;;;;;;;;;;5000459;28;20022;-92
2022/01/07 05:45:45;;;;;;;10.68;2.50;;;;;;;;;;4999957;28;20021;-92
2022/01/07 05:48:12;;;;;;;19.05;2.90;;;;;;;;;;4999978;28;20018;-92
2022/01/07 05:50:38;;;;;;;10.02;2.78;;;;;;;;;;5000046;28;20025;-92
2022/01/07 05:53:05;;;;;;;8.30;2.15;;;;;;;;;;4999962;28;20022;-92
2022/01/07 05:55:31;;;;;;;12.00;2.03;;;;;;;;;;4999966;28;20472;-93
2022/01/07 05:57:57;;;;;;;17.20;2.28;;;;;;;;;;5000045;28;20026;-92
2022/01/07 06:00:24;;;;;;;12.85;2.58;;;;;;;;;;4999883;28;20080;-92
2022/01/07 06:02:50;;;;;;;14.32;2.58;;;;;;;;;;4999589;28;20373;-92
2022/01/07 06:05:16;;;;;;;9.55;1.83;;;;;;;;;;4999683;28;20025;-92
2022/01/07 06:07:42;;;;;;;15.10;2.83;;;;;;;;;;4999536;28;20058;-92
2022/01/07 06:10:09;;;;;;;8.75;2.53;;;;;;;;;;4999339;28;20143;-92
2022/01/07 06:12:35;;;;;;;8.90;2.15;;;;;;;;;;4999725;28;20069;-92
2022/01/07 06:15:01;;;;;;;8.65;2.17;;;;;;;;;;4999426;28;20029;-92
2022/01/07 06:17:27;;;;;;;11.40;2.33;;;;;;;;;;4999394;28;20026;-92
2022/01/07 06:19:53;;;;;;;13.88;2.28;;;;;;;;;;4999549;28;20025;-93
2022/01/07 06:22:19;;;;;;;12.30;2.60;;;;;;;;;;4999305;28;20403;-93
2022/01/07 06:24:46;;;;;;;19.60;3.30;;;;;;;;;;4999478;28;20087;-93
2022/01/07 06:27:12;;;;;;;10.00;2.20;;;;;;;;;;4999332;28;20519;-94
2022/01/07 06:29:38;;;;;;;14.98;2.28;;;;;;;;;;4999433;28;20030;-93
2022/01/07 06:32:05;;;;;;;15.07;2.80;;;;;;;;;;4999546;28;20029;-92
2022/01/07 06:34:31;;;;;;;12.70;2.63;;;;;;;;;;4999170;28;20068;-93
2022/01/07 06:36:59;;;;;;;10.45;2.40;;;;;;;;;;4999244;28;20026;-93
2022/01/07 06:39:28;;;;;;;12.00;2.40;;;;;;;;;;4999078;28;20029;-92
2022/01/07 06:41:54;;;;;;;10.77;2.50;;;;;;;;;;4998981;28;20085;-92
2022/01/07 06:44:20;;;;;;;12.82;2.50;;;;;;;;;;5015309;28;20037;-92
2022/01/07 06:46:47;;;;;;;12.95;2.28;;;;;;;;;;5015217;28;20485;-93
2022/01/07 06:49:16;;;;;;;15.05;3.80;;;;;;;;;;5015302;28;20388;-92
2022/01/07 06:51:43;;;;;;;11.55;2.47;;;;;;;;;;5015112;28;20021;-93
2022/01/07 06:54:11;;;;;;;10.73;2.78;;;;;;;;;;5015143;28;20030;-93
2022/01/07 06:56:46;;;;;;;12.05;2.70;;;;;;;;;;5015253;28;20026;-93
2022/01/07 06:59:13;;;;;;;13.05;1.90;;;;;;;;;;5015069;28;20504;-94
2022/01/07 07:01:43;;;;;;;13.05;2.03;;;;;;;;;;5015086;28;20034;-93
2022/01/07 07:04:09;;;;;;;11.15;2.25;;;;;;;;;;5014884;28;20061;-92
2022/01/07 07:06:35;;;;;;;12.63;2.50;;;;;;;;;;5015764;28;20021;-94
2022/01/07 07:09:03;;;;;;;20.30;2.78;;;;;;;;;;5015171;28;20024;-93
2022/01/07 07:11:29;;;;;;;16.08;2.80;;;;;;;;;;5014837;28;20056;-93
2022/01/07 07:13:55;;;;;;;8.27;1.95;;;;;;;;;;5014905;28;20526;-93
2022/01/07 07:16:21;;;;;;;8.27;2.60;;;;;;;;;;5014628;28;20383;-93
2022/01/07 07:18:48;;;;;;;11.60;2.95;;;;;;;;;;5014860;28;20483;-93
2022/01/07 07:21:14;;;;;;;13.60;2.75;;;;;;;;;;5015127;28;20120;-93
2022/01/07 07:23:40;;;;;;;15.20;2.53;;;;;;;;;;5014794;28;20113;-93
2022/01/07 07:26:07;;;;;;;13.48;2.75;;;;;;;;;;5014625;28;20021;-93
2022/01/07 07:28:36;;;;;;;17.88;3.70;;;;;;;;;;5014413;28;20540;-93
2022/01/07 07:31:05;;;;;;;13.23;2.65;;;;;;;;;;5014634;28;20563;-93
2022/01/07 07:33:55;;;;;;;13.18;2.00;;;;;;;;;;5013766;28;20025;-94
2022/01/07 07:36:31;;;;;;;9.65;2.60;;;;;;;;;;5015395;28;20056;-93
2022/01/07 07:39:05;;;;;;;19.13;2.90;;;;;;;;;;5014500;28;20029;-93
2022/01/07 07:41:32;;;;;;;16.60;2.50;;;;;;;;;;5015121;28;20032;-93
2022/01/07 07:43:59;;;;;;;13.60;2.75;;;;;;;;;;5014307;28;20113;-94
2022/01/07 07:46:26;;;;;;;13.43;2.35;;;;;;;;;;5014253;28;20068;-92
2022/01/07 07:48:52;;;;;;;9.60;1.95;;;;;;;;;;5015377;28;20538;-93
2022/01/07 07:51:19;;;;;;;12.70;2.72;;;;;;;;;;5014172;28;20041;-96
2022/01/07 07:53:46;;;;;;;16.10;2.83;;;;;;;;;;5014525;28;20026;-93
2022/01/07 07:56:13;;;;;;;11.80;2.17;;;;;;;;;;5014118;28;20018;-93
2022/01/07 07:58:39;;;;;;;7.63;2.47;;;;;;;;;;5014077;28;20025;-93
2022/01/07 08:01:06;;;;;;;11.20;3.33;;;;;;;;;;5013929;28;20026;-93
2022/01/07 08:03:32;;;;;;;14.52;3.22;;;;;;;;;;5013730;28;20117;-93
2022/01/07 08:05:58;;;;;;;10.88;2.95;;;;;;;;;;5014681;28;20076;-93
2022/01/07 08:08:24;;;;;;;14.35;3.33;;;;;;;;;;5013900;28;20033;-93
2022/01/07 08:10:57;;;;;;;17.40;3.55;;;;;;;;;;5013966;28;20046;-93
2022/01/07 08:15:58;;;;;;;15.55;3.72;;;;;;;;;;5014657;28;20380;-94
2022/01/07 08:16:19;;;;;;;14.05;3.28;;;;;;;;;;5015013;28;20022;-92
2022/01/07 08:18:48;;;;;;;18.90;3.83;;;;;;;;;;5013598;28;20025;-93
2022/01/07 08:21:15;;;;;;;12.32;3.28;;;;;;;;;;5013860;28;20423;-93
2022/01/07 08:23:41;;;;;;;17.60;4.13;;;;;;;;;;5013534;28;20030;-93
2022/01/07 08:26:09;;;;;;;15.02;3.83;;;;;;;;;;5013494;28;20061;-93
2022/01/07 08:28:44;;;;;;;17.60;4.55;;;;;;;;;;5013508;28;20030;-93
2022/01/07 08:36:23;;;;;;;19.05;6.72;;;;;;;;;;5015166;28;20535;-93
2022/01/07 08:38:50;;;;;;;16.25;6.00;;;;;;;;;;5014068;28;20037;-92
2022/01/07 08:41:17;;;;;;;20.77;8.82;;;;;;;;;;5013475;28;20029;-93
2022/01/07 08:43:43;;;;;;;23.77;8.65;;;;;;;;;;5014319;28;20376;-93
2022/01/07 08:46:10;;;;;;;18.50;8.13;;;;;;;;;;5017460;28;20088;-94
2022/01/07 08:48:36;;;;;;;18.08;9.93;;;;;;;;;;5017528;28;20029;-93
2022/01/07 08:51:04;;;;;;;21.92;9.65;;;;;;;;;;5017234;28;20083;-93
2022/01/07 08:53:30;;;;;;;27.92;8.88;;;;;;;;;;5017715;28;20419;-93
2022/01/07 08:55:56;;;;;;;22.25;6.78;;;;;;;;;;5017420;28;20036;-93
2022/01/07 08:58:22;;;;;;;18.40;5.15;;;;;;;;;;5017399;28;20037;-92
2022/01/07 09:00:49;;;;;;;15.45;4.70;;;;;;;;;;5017142;28;20022;-93
2022/01/07 09:03:15;;;;;;;19.55;5.32;;;;;;;;;;5017241;28;20026;-93
2022/01/07 09:05:41;;;;;;;14.98;4.65;;;;;;;;;;5017094;28;20030;-92
2022/01/07 09:08:09;;;;;;;16.50;4.45;;;;;;;;;;5017003;28;20484;-92
2022/01/07 09:10:36;;;;;;;12.07;4.20;;;;;;;;;;5017093;28;20065;-93
2022/01/07 09:13:02;;;;;;;19.38;5.00;;;;;;;;;;5017602;28;20033;-93
2022/01/07 09:15:28;;;;;;;15.75;4.10;;;;;;;;;;5017611;28;20025;-93
2022/01/07 09:17:55;;;;;;;12.65;3.90;;;;;;;;;;5017101;28;20030;-92
2022/01/07 09:20:21;;;;;;;15.15;4.60;;;;;;;;;;5016935;28;20113;-94
2022/01/07 09:22:48;;;;;;;13.98;3.53;;;;;;;;;;5016846;28;20036;-92
2022/01/07 09:25:14;;;;;;;20.63;5.65;;;;;;;;;;5017548;28;20539;-93
2022/01/07 09:27:41;;;;;;;13.15;7.57;;;;;;;;;;5017590;28;20033;-94
2022/01/07 09:30:08;;;;;;;21.42;7.60;;;;;;;;;;5016865;28;20057;-93
2022/01/07 09:32:34;;;;;;;27.67;9.18;;;;;;;;;;5016960;28;20033;-93
2022/01/07 09:35:00;;;;;;;25.80;9.55;;;;;;;;;;5016662;28;20034;-93
2022/01/07 09:37:26;;;;;;;25.92;9.90;;;;;;;;;;5016588;28;20026;-93
2022/01/07 09:39:53;;;;;;;27.05;9.15;;;;;;;;;;5016609;28;20028;-93
2022/01/07 09:42:19;;;;;;;18.83;8.05;;;;;;;;;;5016424;28;20026;-94
2022/01/07 09:44:45;;;;;;;20.30;9.27;;;;;;;;;;5016319;28;20030;-93
2022/01/07 09:47:13;;;;;;;22.23;8.30;;;;;;;;;;5016273;28;20022;-93
2022/01/07 09:49:40;;;;;;;19.67;7.82;;;;;;;;;;5016324;28;20065;-94
2022/01/07 09:52:07;;;;;;;22.20;9.13;;;;;;;;;;5016309;28;20013;-93
2022/01/07 09:54:33;;;;;;;24.05;8.80;;;;;;;;;;5017758;28;20184;-94
2022/01/07 09:57:00;;;;;;;21.65;8.93;;;;;;;;;;5016067;28;20026;-94
2022/01/07 09:59:26;;;;;;;18.98;8.25;;;;;;;;;;5016513;28;20087;-94
2022/01/07 10:01:55;;;;;;;20.42;7.95;;;;;;;;;;5016097;28;20026;-94
2022/01/07 10:04:40;;;;;;;21.35;8.20;;;;;;;;;;5015924;28;20029;-93
2022/01/07 10:07:13;;;;;;;18.40;6.80;;;;;;;;;;5016682;28;20033;-93
2022/01/07 10:09:40;;;;;;;18.77;6.40;;;;;;;;;;5019613;28;20065;-94
2022/01/07 10:12:07;;;;;;;15.45;6.32;;;;;;;;;;5019882;28;20028;-93
2022/01/07 10:14:33;;;;;;;17.40;7.32;;;;;;;;;;5019621;28;20502;-93
2022/01/07 10:17:01;;;;;;;21.42;7.25;;;;;;;;;;5020382;28;20225;-94
2022/01/07 10:19:33;;;;;;;17.83;7.63;;;;;;;;;;5019595;28;20025;-93
2022/01/07 10:22:00;;;;;;;21.77;8.25;;;;;;;;;;5019574;28;20049;-94
2022/01/07 10:24:27;;;;;;;18.23;8.63;;;;;;;;;;5019793;28;20026;-94
2022/01/07 10:27:13;;;;;;;17.38;7.93;;;;;;;;;;5019504;28;20025;-94
2022/01/07 10:29:43;;;;;;;15.02;7.30;;;;;;;;;;5019870;28;20025;-94
2022/01/07 10:32:22;;;;;;;25.75;8.38;;;;;;;;;;5019706;28;20082;-95
2022/01/07 10:35:01;;;;;;;26.90;8.85;;;;;;;;;;5019299;28;20049;-95
2022/01/07 10:37:28;;;;;;;21.88;8.70;;;;;;;;;;5019659;28;20496;-95
2022/01/07 10:39:54;;;;;;;20.40;8.77;;;;;;;;;;5019528;28;20541;-95
2022/01/07 10:42:24;;;;;;;22.48;8.45;;;;;;;;;;5019035;28;20029;-95
2022/01/07 10:45:08;;;;;;;17.77;7.05;;;;;;;;;;5019281;28;20057;-94
2022/01/07 10:47:34;;;;;;;21.75;7.00;;;;;;;;;;5019224;28;20479;-95
2022/01/07 10:50:14;;;;;;;19.80;8.82;;;;;;;;;;5019128;28;20089;-95
2022/01/07 10:52:41;;;;;;;49.85;23.30;;;;;;;;;;5019035;28;20391;-95
2022/01/07 10:55:10;;;;;;;57.60;26.88;;;;;;;;;;5018853;28;20021;-95
2022/01/07 10:57:37;;;;;;;30.67;10.23;;;;;;;;;;5018700;28;20037;-95
2022/01/07 11:00:05;;;;;;;10.82;2.80;;;;;;;;;;5018689;28;20108;-95
2022/01/07 11:02:34;;;;;;;10.43;3.45;;;;;;;;;;5018985;28;20123;-95
2022/01/07 11:05:01;;;;;;;15.70;3.80;;;;;;;;;;5018097;28;20025;-95
2022/01/07 11:07:31;;;;;;;10.82;2.83;;;;;;;;;;5018341;28;20029;-95
2022/01/07 11:09:57;;;;;;;11.35;2.80;;;;;;;;;;5018877;28;20041;-95
2022/01/07 11:12:25;;;;;;;12.88;2.60;;;;;;;;;;5018645;28;20013;-95
2022/01/07 11:14:51;;;;;;;16.35;3.63;;;;;;;;;;5018747;28;20427;-94
2022/01/07 11:17:21;;;;;;;12.73;3.08;;;;;;;;;;5018989;28;20026;-94
2022/01/07 11:20:01;;;;;;;9.15;2.55;;;;;;;;;;5018633;28;20026;-96
2022/01/07 11:22:28;;;;;;;11.52;2.67;;;;;;;;;;5018781;28;20545;-95
2022/01/07 11:24:59;;;;;;;8.25;2.28;;;;;;;;;;5018327;28;20483;-96
2022/01/07 11:27:26;;;;;;;14.23;2.73;;;;;;;;;;5018613;28;20021;-95
2022/01/07 11:29:54;;;;;;;10.32;2.25;;;;;;;;;;5018456;28;20300;-95
2022/01/07 11:32:26;;;;;;;13.05;2.92;;;;;;;;;;5018977;28;20102;-96
2022/01/07 11:34:57;;;;;;;8.00;2.30;;;;;;;;;;5018706;28;20104;-95
2022/01/07 11:37:33;;;;;;;13.07;2.58;;;;;;;;;;5018653;28;20029;-95
2022/01/07 11:40:00;;;;;;;14.35;2.97;;;;;;;;;;5018659;28;20144;-95
2022/01/07 11:42:42;;;;;;;13.68;2.95;;;;;;;;;;5018306;28;20446;-95
2022/01/07 11:45:28;;;;;;;13.85;2.78;;;;;;;;;;5018357;28;20030;-94
2022/01/07 11:47:55;;;;;;;11.98;2.28;;;;;;;;;;5018056;28;20432;-95
2022/01/07 11:50:23;;;;;;;12.45;2.70;;;;;;;;;;5018313;28;20025;-95
2022/01/07 11:52:56;;;;;;;11.32;3.08;;;;;;;;;;5018001;28;20048;-94
2022/01/07 11:55:22;;;;;;;15.32;2.60;;;;;;;;;;5018228;28;20032;-95
2022/01/07 11:57:55;;;;;;;13.55;3.42;;;;;;;;;;5018128;28;20029;-94
2022/01/07 12:00:40;;;;;;;10.52;2.80;;;;;;;;;;5017447;28;20025;-94
2022/01/07 12:03:06;;;;;;;10.43;2.55;;;;;;;;;;5018772;28;20025;-96
2022/01/07 12:05:33;;;;;;;11.38;2.88;;;;;;;;;;5017096;28;20026;-95
2022/01/07 12:07:59;;;;;;;14.32;2.88;;;;;;;;;;5017570;28;20472;-96
2022/01/07 12:10:25;;;;;;;14.73;2.83;;;;;;;;;;5017872;28;20061;-95
2022/01/07 12:12:59;;;;;;;13.50;2.65;;;;;;;;;;5018177;28;20168;-95
2022/01/07 12:15:25;;;;;;;10.85;2.67;;;;;;;;;;5017782;28;20120;-95
2022/01/07 12:17:51;;;;;;;16.30;3.05;;;;;;;;;;5017620;28;20033;-94
2022/01/07 12:20:20;;;;;;;13.68;3.03;;;;;;;;;;5017327;28;20480;-95
2022/01/07 12:22:47;;;;;;;12.00;3.10;;;;;;;;;;5017936;28;20096;-96
2022/01/07 12:25:14;;;;;;;8.48;2.25;;;;;;;;;;5017566;28;20368;-95
2022/01/07 12:27:40;;;;;;;9.30;2.92;;;;;;;;;;5017920;28;20025;-95
2022/01/07 12:30:06;;;;;;;13.40;4.10;;;;;;;;;;5018371;28;20028;-95
2022/01/07 12:32:34;;;;;;;29.70;19.33;;;;;;;;;;5017535;28;20040;-96
2022/01/07 12:35:00;;;;;;;15.23;5.80;;;;;;;;;;5017049;28;20026;-95
2022/01/07 12:37:27;;;;;;;13.05;3.63;;;;;;;;;;5017522;28;20030;-95
2022/01/07 12:39:57;;;;;;;14.35;5.65;;;;;;;;;;5017189;28;20112;-96
2022/01/07 12:42:29;;;;;;;36.38;24.67;;;;;;;;;;5016735;28;20116;-94
2022/01/07 12:44:57;;;;;;;36.50;26.50;;;;;;;;;;5017257;28;20029;-95
2022/01/07 12:47:30;;;;;;;19.38;12.63;;;;;;;;;;5016945;28;20163;-95
2022/01/07 12:49:58;;;;;;;25.23;15.13;;;;;;;;;;5017231;28;20101;-95
2022/01/07 12:52:25;;;;;;;40.85;29.27;;;;;;;;;;5017366;28;20028;-95
2022/01/07 12:54:52;;;;;;;35.20;27.63;;;;;;;;;;5017797;28;20026;-95
2022/01/07 12:57:32;;;;;;;32.10;25.08;;;;;;;;;;5017362;28;20033;-94
2022/01/07 13:00:03;;;;;;;36.63;29.77;;;;;;;;;;5017182;28;20049;-94
2022/01/07 13:02:29;;;;;;;33.70;25.13;;;;;;;;;;5018225;28;20460;-95
2022/01/07 13:05:09;;;;;;;31.15;23.25;;;;;;;;;;5017280;28;20030;-95
2022/01/07 13:07:39;;;;;;;32.42;26.10;;;;;;;;;;5017705;28;20041;-94
2022/01/07 13:10:06;;;;;;;27.15;19.42;;;;;;;;;;5016922;28;20068;-94
2022/01/07 13:12:32;;;;;;;24.90;15.50;;;;;;;;;;5017242;28;20022;-94
2022/01/07 13:14:58;;;;;;;45.22;38.10;;;;;;;;;;5016760;28;20456;-94
2022/01/07 13:17:28;;;;;;;36.38;30.05;;;;;;;;;;5016514;28;20029;-94
2022/01/07 13:19:57;;;;;;;23.92;18.88;;;;;;;;;;5016585;28;20025;-94
2022/01/07 13:22:26;;;;;;;17.52;9.52;;;;;;;;;;5016427;28;20026;-94
2022/01/07 13:24:53;;;;;;;15.13;11.43;;;;;;;;;;5016790;28;20053;-94
2022/01/07 13:27:19;;;;;;;36.35;5.35;;;;;;;;;;5016307;28;20028;-94
2022/01/07 13:29:49;;;;;;;14.85;5.95;;;;;;;;;;5017037;28;20083;-94
2022/01/07 13:32:25;;;;;;;15.60;5.78;;;;;;;;;;5019131;28;20026;-94
2022/01/07 13:34:52;;;;;;;16.95;6.07;;;;;;;;;;5020704;28;20025;-93
2022/01/07 13:37:19;;;;;;;20.02;13.70;;;;;;;;;;5020911;28;20025;-94
2022/01/07 13:39:50;;;;;;;24.13;12.35;;;;;;;;;;5020631;28;20480;-94
2022/01/07 13:42:23;;;;;;;19.40;6.53;;;;;;;;;;5020509;28;20067;-94
2022/01/07 13:44:51;;;;;;;19.23;13.60;;;;;;;;;;5020601;28;20021;-96
2022/01/07 13:47:21;;;;;;;36.20;25.85;;;;;;;;;;5023414;28;20026;-96
2022/01/07 13:49:48;;;;;;;26.38;15.38;;;;;;;;;;5021926;28;20025;-94
2022/01/07 13:52:14;;;;;;;10.80;5.10;;;;;;;;;;5020640;28;20026;-94
2022/01/07 13:54:41;;;;;;;16.95;10.13;;;;;;;;;;5020072;28;20029;-94
2022/01/07 13:57:12;;;;;;;15.95;10.18;;;;;;;;;;5020639;28;20032;-95
2022/01/07 13:59:41;;;;;;;17.10;7.70;;;;;;;;;;5019933;28;20444;-95
2022/01/07 14:02:08;;;;;;;16.73;5.43;;;;;;;;;;5020901;28;20030;-94
2022/01/07 14:04:42;;;;;;;13.98;6.53;;;;;;;;;;5020063;28;20056;-95
2022/01/07 14:07:29;;;;;;;15.82;4.82;;;;;;;;;;5020183;28;20022;-94
2022/01/07 14:10:04;;;;;;;17.90;6.70;;;;;;;;;;5019851;28;20038;-94
2022/01/07 14:12:30;;;;;;;13.68;5.88;;;;;;;;;;5020149;28;20188;-94
2022/01/07 14:15:04;;;;;;;18.58;11.07;;;;;;;;;;5019839;28;20029;-94
2022/01/07 14:17:31;;;;;;;20.50;11.73;;;;;;;;;;5019388;28;20033;-94
2022/01/07 14:19:58;;;;;;;57.53;42.05;;;;;;;;;;5018936;28;20029;-95
2022/01/07 14:22:24;;;;;;;36.05;22.35;;;;;;;;;;5019409;28;20393;-95
2022/01/07 14:24:53;;;;;;;56.80;41.65;;;;;;;;;;5019468;28;20040;-94
2022/01/07 14:27:31;;;;;;;93.95;64.50;;;;;;;;;;5019744;28;20021;-95
2022/01/07 14:29:57;;;;;;;133.60;94.80;;;;;;;;;;5019425;28;20021;-95
2022/01/07 14:32:25;;;;;;;62.95;47.50;;;;;;;;;;5019078;28;20040;-95
2022/01/07 14:34:51;;;;;;;48.80;33.85;;;;;;;;;;5019649;28;20025;-95
2022/01/07 14:37:18;;;;;;;118.70;96.00;;;;;;;;;;5019187;28;20045;-95
2022/01/07 14:39:46;;;;;;;161.02;116.43;;;;;;;;;;5019284;28;20041;-95
2022/01/07 14:42:12;;;;;;;140.40;106.95;;;;;;;;;;5019582;28;20025;-95
2022/01/07 14:44:39;;;;;;;89.70;69.15;;;;;;;;;;5019174;28;20512;-95